Time;durP1;ratioP1;P1;durP2;ratioP2;P2;SDS_P1;SDS_P2;PMS_P1;PMS_P2;Temp;Humidity;BMP_temperature;BMP_pressure;BME280_temperature;BME280_humidity;BME280_pressure;Samples;Min_cycle;Max_cycle;Signal;HPM_P1;HPM_P2
2022/08/27 00:00:45;;;;;;;13.90;9.97;;;;;;;19.22;100.00;100212.69;5017613;28;20205;-79
2022/08/27 00:03:14;;;;;;;14.07;9.67;;;;;;;19.25;100.00;100207.25;5017038;28;20206;-79
2022/08/27 00:05:40;;;;;;;13.83;10.77;;;;;;;19.24;100.00;100201.06;5017065;28;20227;-79
2022/08/27 00:08:09;;;;;;;11.10;9.60;;;;;;;19.31;100.00;100201.59;5019275;28;20729;-80
2022/08/27 00:10:36;;;;;;;12.33;10.03;;;;;;;19.36;100.00;100209.25;5026396;28;20658;-80
2022/08/27 00:13:02;;;;;;;11.67;10.60;;;;;;;19.40;100.00;100205.47;5037121;28;20268;-79
2022/08/27 00:15:30;;;;;;;11.20;9.90;;;;;;;19.36;100.00;100210.09;5036279;28;20206;-78
2022/08/27 00:17:58;;;;;;;11.37;8.90;;;;;;;19.34;100.00;100205.84;5037553;28;20206;-80
2022/08/27 00:20:27;;;;;;;12.60;10.53;;;;;;;19.34;100.00;100204.03;5036408;28;20224;-80
2022/08/27 00:22:54;;;;;;;12.43;9.27;;;;;;;19.42;100.00;100199.16;5036532;28;20210;-80
2022/08/27 00:25:22;;;;;;;11.23;9.17;;;;;;;19.50;100.00;100208.41;5036171;28;20230;-80
2022/08/27 00:27:48;;;;;;;11.17;8.97;;;;;;;19.45;100.00;100206.06;5037732;28;20210;-80
2022/08/27 00:30:18;;;;;;;11.60;9.20;;;;;;;19.39;100.00;100201.97;5037190;28;20613;-80
2022/08/27 00:32:45;;;;;;;15.90;10.10;;;;;;;19.46;100.00;100205.09;5045488;28;20649;-79
2022/08/27 00:35:14;;;;;;;10.50;8.53;;;;;;;19.41;100.00;100208.03;5051414;28;20198;-79
2022/08/27 00:37:43;;;;;;;9.97;8.30;;;;;;;19.32;100.00;100215.66;5049921;28;20230;-79
2022/08/27 00:40:14;;;;;;;12.43;9.30;;;;;;;19.28;100.00;100204.41;5025995;28;20253;-80
2022/08/27 00:42:45;;;;;;;9.70;8.30;;;;;;;19.34;100.00;100201.38;5036148;28;20272;-80
2022/08/27 00:45:13;;;;;;;11.30;7.77;;;;;;;19.43;100.00;100215.88;5036594;28;20291;-81
2022/08/27 00:47:45;;;;;;;9.83;8.20;;;;;;;19.30;100.00;100214.91;5036011;28;20210;-80
2022/08/27 00:50:15;;;;;;;8.27;7.47;;;;;;;19.29;100.00;100208.75;5037179;28;20246;-80
2022/08/27 00:52:46;;;;;;;12.83;8.50;;;;;;;19.27;100.00;100202.72;5036104;28;20256;-81
2022/08/27 00:55:17;;;;;;;9.23;7.57;;;;;;;19.21;100.00;100197.78;5036017;28;20206;-81
2022/08/27 00:57:47;;;;;;;11.83;7.73;;;;;;;19.19;100.00;100205.81;5036421;28;20275;-80
2022/08/27 01:00:17;;;;;;;10.50;7.37;;;;;;;19.18;100.00;100205.88;5036417;28;20206;-80
2022/08/27 01:02:45;;;;;;;10.17;7.67;;;;;;;19.30;100.00;100207.81;5035951;28;20210;-81
2022/08/27 01:05:14;;;;;;;12.23;7.50;;;;;;;19.29;100.00;100215.84;5036312;28;20237;-79
2022/08/27 01:07:46;;;;;;;12.07;6.93;;;;;;;19.41;100.00;100220.44;5035908;28;20747;-81
2022/08/27 01:10:18;;;;;;;7.97;7.17;;;;;;;19.34;100.00;100235.78;5024528;28;20728;-79
2022/08/27 01:12:45;;;;;;;8.00;6.87;;;;;;;19.37;100.00;100232.13;5036287;28;20759;-80
2022/08/27 01:15:14;;;;;;;8.57;6.87;;;;;;;19.29;100.00;100247.63;5035846;28;20210;-81
2022/08/27 01:17:42;;;;;;;8.43;6.83;;;;;;;19.25;100.00;100234.56;5036733;28;20206;-80
2022/08/27 01:20:14;;;;;;;11.93;6.33;;;;;;;19.25;100.00;100239.84;5036383;28;20222;-82
2022/08/27 01:22:50;;;;;;;7.83;5.60;;;;;;;19.25;100.00;100236.34;5036256;28;20213;-80
2022/08/27 01:25:20;;;;;;;12.30;6.43;;;;;;;19.32;100.00;100245.63;5035617;28;20225;-81
2022/08/27 01:27:47;;;;;;;13.20;6.97;;;;;;;19.25;100.00;100250.44;5036223;28;20256;-81
2022/08/27 01:30:18;;;;;;;10.10;7.17;;;;;;;19.26;100.00;100256.56;5037214;28;20206;-81
2022/08/27 01:32:45;;;;;;;11.63;6.57;;;;;;;19.23;100.00;100249.66;5037242;28;20669;-82
2022/08/27 01:35:14;;;;;;;7.10;6.40;;;;;;;19.18;100.00;100242.94;5036418;28;20256;-79
2022/08/27 01:37:41;;;;;;;11.73;6.43;;;;;;;19.09;100.00;100252.25;5035625;28;20207;-79
2022/08/27 01:40:10;;;;;;;9.87;6.50;;;;;;;19.10;100.00;100247.81;5022349;28;20206;-81
2022/08/27 01:42:42;;;;;;;11.43;6.33;;;;;;;18.99;100.00;100251.94;5016982;28;20573;-79
2022/08/27 01:45:11;;;;;;;11.63;7.27;;;;;;;18.96;100.00;100252.09;5015149;28;20257;-80
2022/08/27 01:47:39;;;;;;;10.10;6.63;;;;;;;19.02;100.00;100258.84;5015815;28;20273;-79
2022/08/27 01:50:09;;;;;;;9.80;6.93;;;;;;;18.99;100.00;100259.88;5015562;28;20234;-79
2022/08/27 01:52:35;;;;;;;9.47;6.47;;;;;;;19.03;100.00;100265.84;5016002;28;20571;-79
2022/08/27 01:55:04;;;;;;;9.90;7.07;;;;;;;18.98;100.00;100250.22;5015854;28;20226;-81
2022/08/27 01:57:31;;;;;;;11.47;6.83;;;;;;;18.98;100.00;100260.81;5015909;28;20656;-79
2022/08/27 01:59:59;;;;;;;10.57;7.30;;;;;;;19.00;100.00;100266.84;5017898;28;20226;-81
2022/08/27 02:02:26;;;;;;;11.67;6.50;;;;;;;18.87;100.00;100265.88;5019750;28;20241;-80
2022/08/27 02:04:54;;;;;;;8.57;7.30;;;;;;;18.87;100.00;100265.88;5019613;28;20215;-81
2022/08/27 02:07:21;;;;;;;11.87;7.67;;;;;;;18.91;100.00;100264.75;5019481;28;20206;-81
2022/08/27 02:09:47;;;;;;;8.40;6.77;;;;;;;18.98;100.00;100271.38;5018139;28;20231;-81
2022/08/27 02:12:13;;;;;;;9.10;7.00;;;;;;;19.00;100.00;100272.16;5034819;28;20735;-79
2022/08/27 02:14:40;;;;;;;11.23;7.17;;;;;;;18.99;100.00;100285.47;5038522;28;20232;-80
2022/08/27 02:17:07;;;;;;;9.47;6.83;;;;;;;18.94;100.00;100279.59;5038401;28;20664;-81
2022/08/27 02:19:34;;;;;;;11.37;7.70;;;;;;;18.98;100.00;100276.66;5038099;28;20236;-79
2022/08/27 02:22:02;;;;;;;11.57;6.50;;;;;;;18.99;100.00;100270.47;5038521;28;20760;-81
2022/08/27 02:24:28;;;;;;;14.87;7.60;;;;;;;18.90;100.00;100270.97;5038636;28;20735;-81
2022/08/27 02:26:55;;;;;;;14.27;7.10;;;;;;;19.02;100.00;100278.19;5038148;28;20226;-81
2022/08/27 02:29:22;;;;;;;12.80;8.17;;;;;;;18.90;100.00;100273.59;5038657;28;20230;-80
2022/08/27 02:31:49;;;;;;;13.07;8.90;;;;;;;18.95;100.00;100283.91;5038520;28;20630;-81
2022/08/27 02:34:17;;;;;;;14.53;9.33;;;;;;;18.82;100.00;100289.91;5038370;28;20210;-81
2022/08/27 02:36:44;;;;;;;10.83;9.00;;;;;;;18.89;100.00;100289.56;5039454;28;20202;-79
2022/08/27 02:39:12;;;;;;;10.20;9.20;;;;;;;18.98;100.00;100286.41;5027311;28;20646;-81
2022/08/27 02:41:39;;;;;;;9.03;8.07;;;;;;;19.04;100.00;100294.00;5038088;28;20202;-81
2022/08/27 02:44:05;;;;;;;12.27;9.57;;;;;;;18.97;100.00;100293.50;5039665;28;20206;-80
2022/08/27 02:46:31;;;;;;;9.80;8.60;;;;;;;19.10;100.00;100291.00;5037781;28;20233;-80
2022/08/27 02:48:58;;;;;;;9.07;8.27;;;;;;;19.12;100.00;100285.63;5036984;28;20652;-81
2022/08/27 02:51:25;;;;;;;13.73;8.97;;;;;;;19.03;100.00;100284.38;5037579;28;20217;-81
2022/08/27 02:53:53;;;;;;;11.37;9.20;;;;;;;19.07;100.00;100285.03;5038207;28;20256;-79
2022/08/27 02:56:20;;;;;;;15.13;12.43;;;;;;;18.84;100.00;100269.50;5037068;28;20213;-80
2022/08/27 02:58:46;;;;;;;15.90;14.30;;;;;;;18.77;100.00;100259.31;5037232;28;20863;-80
2022/08/27 03:01:12;;;;;;;18.57;15.03;;;;;;;18.81;100.00;100255.59;5037275;28;20213;-80
2022/08/27 03:03:39;;;;;;;15.27;13.70;;;;;;;18.72;100.00;100254.31;5037848;28;20592;-80
2022/08/27 03:06:05;;;;;;;15.97;14.37;;;;;;;18.79;100.00;100257.44;5037344;28;20244;-81
2022/08/27 03:08:33;;;;;;;15.73;14.10;;;;;;;18.74;100.00;100260.34;5032665;28;20289;-81
2022/08/27 03:11:02;;;;;;;15.03;13.73;;;;;;;18.72;100.00;100254.31;5028686;28;20202;-81
2022/08/27 03:13:28;;;;;;;15.40;12.40;;;;;;;18.78;100.00;100253.13;5037393;28;20206;-80
2022/08/27 03:15:54;;;;;;;14.20;12.90;;;;;;;18.71;100.00;100247.34;5037068;28;20202;-82
2022/08/27 03:18:20;;;;;;;15.60;14.23;;;;;;;18.76;100.00;100250.56;5037818;28;20230;-81
2022/08/27 03:20:51;;;;;;;18.03;14.03;;;;;;;18.82;100.00;100249.38;5037178;28;20684;-81
2022/08/27 03:23:21;;;;;;;13.37;12.17;;;;;;;18.82;100.00;100244.94;5037923;28;20206;-81
2022/08/27 03:25:51;;;;;;;18.07;13.47;;;;;;;18.81;100.00;100234.44;5037218;28;20716;-81
2022/08/27 03:28:18;;;;;;;14.03;12.63;;;;;;;18.91;100.00;100248.00;5037459;28;20287;-81
2022/08/27 03:30:50;;;;;;;14.70;13.20;;;;;;;18.90;100.00;100255.09;5037370;28;20209;-81
2022/08/27 03:33:18;;;;;;;15.57;11.67;;;;;;;19.04;100.00;100254.31;5038355;28;20206;-81
2022/08/27 03:35:45;;;;;;;15.23;11.63;;;;;;;19.02;100.00;100256.19;5037616;28;20198;-80
2022/08/27 03:38:11;;;;;;;14.80;12.07;;;;;;;18.79;100.00;100252.16;5035043;28;20285;-80
2022/08/27 03:40:37;;;;;;;18.67;13.10;;;;;;;18.81;100.00;100255.59;5028093;28;20246;-81
2022/08/27 03:43:05;;;;;;;21.50;12.77;;;;;;;18.85;100.00;100257.16;5038315;28;20206;-81
2022/08/27 03:45:31;;;;;;;16.90;11.67;;;;;;;18.82;100.00;100273.19;5042312;28;20205;-81
2022/08/27 03:47:58;;;;;;;12.90;11.70;;;;;;;18.66;100.00;100265.22;5048927;28;20240;-80
2022/08/27 03:50:24;;;;;;;17.07;12.47;;;;;;;18.46;100.00;100247.81;5047422;28;20224;-80
2022/08/27 03:52:51;;;;;;;12.07;10.97;;;;;;;18.61;100.00;100254.91;5038638;28;20228;-80
2022/08/27 03:55:17;;;;;;;13.87;11.37;;;;;;;18.61;100.00;100260.19;5036835;28;20738;-82
2022/08/27 03:57:44;;;;;;;13.67;10.67;;;;;;;18.72;100.00;100267.53;5036716;28;20233;-81
2022/08/27 04:00:13;;;;;;;13.03;10.70;;;;;;;18.63;100.00;100275.97;5037260;28;20213;-80
2022/08/27 04:02:41;;;;;;;11.37;10.00;;;;;;;18.55;100.00;100271.13;5037000;28;20205;-81
2022/08/27 04:05:09;;;;;;;11.60;10.30;;;;;;;18.64;100.00;100261.81;5036384;28;20214;-82
2022/08/27 04:07:35;;;;;;;12.70;10.90;;;;;;;18.72;100.00;100267.53;5038306;28;20229;-82
2022/08/27 04:10:02;;;;;;;9.70;8.83;;;;;;;18.77;100.00;100277.84;5026370;28;20227;-79
2022/08/27 04:12:28;;;;;;;11.07;9.80;;;;;;;18.71;100.00;100276.41;5034458;28;20205;-82
2022/08/27 04:14:54;;;;;;;17.20;9.53;;;;;;;18.67;100.00;100272.22;5036518;28;20214;-81
2022/08/27 04:17:22;;;;;;;8.53;7.53;;;;;;;18.64;100.00;100272.38;5036861;28;20742;-80
2022/08/27 04:19:51;;;;;;;9.83;8.40;;;;;;;18.58;100.00;100267.44;5036594;28;20738;-80
2022/08/27 04:22:18;;;;;;;13.33;8.50;;;;;;;18.50;100.00;100272.31;5036504;28;20259;-82
2022/08/27 04:24:44;;;;;;;8.20;7.37;;;;;;;18.54;100.00;100263.28;5036300;28;20210;-81
2022/08/27 04:27:13;;;;;;;9.33;7.30;;;;;;;18.38;100.00;100268.53;5036338;28;20276;-80
2022/08/27 04:29:39;;;;;;;9.27;7.50;;;;;;;18.21;100.00;100256.22;5036641;28;20261;-81
2022/08/27 04:32:06;;;;;;;9.37;8.40;;;;;;;18.21;100.00;100249.13;5036754;28;20225;-82
2022/08/27 04:34:35;;;;;;;9.10;8.27;;;;;;;18.21;100.00;100246.50;5037079;28;20276;-82
2022/08/27 04:37:02;;;;;;;10.40;7.27;;;;;;;18.13;100.00;100246.06;5036795;28;20271;-81
2022/08/27 04:39:31;;;;;;;10.03;7.63;;;;;;;18.11;100.00;100250.56;5030172;28;20689;-80
2022/08/27 04:42:00;;;;;;;10.23;7.00;;;;;;;18.11;100.00;100257.66;5030469;28;20271;-82
2022/08/27 04:44:31;;;;;;;7.53;6.03;;;;;;;18.18;100.00;100262.53;5036662;28;20198;-81
2022/08/27 04:46:59;;;;;;;9.30;6.93;;;;;;;18.14;100.00;100281.28;5036860;28;20226;-82
2022/08/27 04:49:26;;;;;;;11.47;5.50;;;;;;;18.18;100.00;100283.66;5036706;28;20226;-81
2022/08/27 04:51:55;;;;;;;9.57;5.70;;;;;;;18.31;100.00;100297.06;5036435;28;20252;-79
2022/08/27 04:54:22;;;;;;;7.93;5.80;;;;;;;18.28;100.00;100307.81;5036493;28;20206;-79
2022/08/27 04:56:49;;;;;;;8.87;5.10;;;;;;;18.32;100.00;100314.63;5036289;28;20252;-83
2022/08/27 04:59:15;;;;;;;11.73;6.23;;;;;;;18.31;100.00;100320.84;5036783;28;20250;-83
2022/08/27 05:01:42;;;;;;;10.37;5.17;;;;;;;18.25;100.00;100323.81;5037090;28;20209;-81
2022/08/27 05:04:12;;;;;;;5.53;4.93;;;;;;;18.42;100.00;100333.50;5037664;28;20692;-82
2022/08/27 05:06:38;;;;;;;11.03;5.50;;;;;;;18.30;100.00;100326.25;5037748;28;20232;-82
2022/08/27 05:09:06;;;;;;;7.53;5.20;;;;;;;18.23;100.00;100315.13;5031622;28;20275;-79
2022/08/27 05:11:33;;;;;;;6.73;5.57;;;;;;;18.31;100.00;100323.50;5026008;28;20644;-79
2022/08/27 05:14:02;;;;;;;6.57;4.90;;;;;;;18.29;100.00;100321.88;5034618;28;20214;-80
2022/08/27 05:16:28;;;;;;;7.47;5.17;;;;;;;18.30;100.00;100321.78;5034143;28;20739;-78
2022/08/27 05:18:55;;;;;;;8.10;4.97;;;;;;;18.18;100.00;100319.81;5034062;28;20229;-80
2022/08/27 05:21:24;;;;;;;9.93;4.80;;;;;;;18.32;100.00;100314.63;5034635;28;20264;-80
2022/08/27 05:23:52;;;;;;;7.17;4.80;;;;;;;18.28;100.00;100314.91;5034258;28;20727;-81
2022/08/27 05:26:22;;;;;;;6.27;4.97;;;;;;;18.24;100.00;100320.31;5033911;28;20280;-80
2022/08/27 05:28:48;;;;;;;5.53;4.67;;;;;;;18.33;100.00;100320.78;5034356;28;20265;-79
2022/08/27 05:31:16;;;;;;;16.83;5.67;;;;;;;18.22;100.00;100314.28;5034570;28;20252;-79
2022/08/27 05:33:43;;;;;;;8.07;4.60;;;;;;;18.24;99.91;100322.13;5034672;28;20208;-80
2022/08/27 05:36:15;;;;;;;8.17;4.77;;;;;;;18.20;100.00;100313.50;5037075;28;20198;-80
2022/08/27 05:38:42;;;;;;;8.30;5.10;;;;;;;18.18;100.00;100312.72;5033615;28;20230;-79
2022/08/27 05:41:11;;;;;;;8.07;5.50;;;;;;;18.20;100.00;100316.13;5029414;28;20212;-79
2022/08/27 05:43:41;;;;;;;12.50;6.13;;;;;;;18.16;100.00;100317.25;5038025;28;20205;-80
2022/08/27 05:46:09;;;;;;;10.63;6.73;;;;;;;18.18;100.00;100310.09;5037442;28;20216;-80
2022/08/27 05:48:37;;;;;;;12.83;6.07;;;;;;;18.15;99.86;100315.50;5038319;28;20222;-79
2022/08/27 05:51:09;;;;;;;9.83;6.20;;;;;;;18.21;100.00;100309.06;5038150;28;20237;-81
2022/08/27 05:53:35;;;;;;;11.47;6.77;;;;;;;18.20;100.00;100310.84;5038008;28;20217;-81
2022/08/27 05:56:02;;;;;;;14.90;6.53;;;;;;;18.32;99.71;100314.63;5037626;28;20268;-79
2022/08/27 06:01:15;;;;;;;9.63;7.17;;;;;;;18.12;100.00;100302.50;5037379;28;20287;-80
2022/08/27 06:03:42;;;;;;;13.27;7.20;;;;;;;18.09;100.00;100286.78;5038262;28;20206;-81
2022/08/27 06:06:10;;;;;;;12.43;6.50;;;;;;;18.14;100.00;100291.84;5037780;28;20233;-80
2022/08/27 06:08:38;;;;;;;11.20;6.37;;;;;;;18.23;100.00;100309.84;5033126;28;20231;-79
2022/08/27 06:11:06;;;;;;;12.47;6.93;;;;;;;18.19;100.00;100309.13;5029284;28;20202;-79
2022/08/27 06:13:34;;;;;;;10.23;7.27;;;;;;;18.19;100.00;100314.41;5037959;28;20693;-79
2022/08/27 06:16:02;;;;;;;7.60;6.27;;;;;;;18.25;99.82;100318.53;5038294;28;20221;-81
2022/08/27 06:18:30;;;;;;;10.73;6.93;;;;;;;18.19;100.00;100311.78;5037715;28;20233;-81
2022/08/27 06:20:56;;;;;;;7.90;6.23;;;;;;;18.02;100.00;100311.84;5037255;28;20212;-82
2022/08/27 06:23:23;;;;;;;12.77;7.87;;;;;;;18.15;100.00;100301.47;5037876;28;20206;-79
2022/08/27 06:25:49;;;;;;;17.67;7.57;;;;;;;18.24;100.00;100320.31;5037847;28;20662;-82
2022/08/27 06:28:16;;;;;;;11.63;6.70;;;;;;;18.24;98.72;100345.91;5017988;28;20313;-82
2022/08/27 06:30:42;;;;;;;12.93;7.40;;;;;;;18.18;99.20;100338.31;5007119;28;20235;-79
2022/08/27 06:33:09;;;;;;;8.40;6.63;;;;;;;18.14;99.99;100323.53;5007709;28;20203;-81
2022/08/27 06:35:37;;;;;;;12.27;6.37;;;;;;;18.21;99.70;100328.41;5007882;28;20207;-81
2022/08/27 06:38:03;;;;;;;12.57;6.93;;;;;;;18.21;99.92;100322.28;5007591;28;21998;-80
2022/08/27 06:40:29;;;;;;;13.20;7.00;;;;;;;18.15;100.00;100318.16;5017648;28;20206;-81
2022/08/27 06:42:56;;;;;;;8.60;7.00;;;;;;;18.12;100.00;100326.25;5010930;28;20199;-81
2022/08/27 06:45:22;;;;;;;7.20;6.10;;;;;;;18.11;100.00;100326.34;5006061;28;20241;-80
2022/08/27 06:47:50;;;;;;;17.23;14.17;;;;;;;18.15;100.00;100312.88;5015101;28;20299;-81
2022/08/27 06:50:16;;;;;;;9.60;5.70;;;;;;;18.28;100.00;100309.59;5017553;28;20236;-80
2022/08/27 06:52:45;;;;;;;7.17;5.67;;;;;;;18.13;99.90;100322.66;5016480;28;20206;-79
2022/08/27 06:55:13;;;;;;;10.03;5.63;;;;;;;18.26;100.00;100322.91;5016514;28;20214;-81
2022/08/27 06:57:39;;;;;;;6.70;5.17;;;;;;;18.22;100.00;100322.19;5017152;28;20206;-82
2022/08/27 07:00:08;;;;;;;7.70;5.20;;;;;;;18.32;100.00;100329.66;5011352;28;20224;-81
2022/08/27 07:02:34;;;;;;;9.20;5.30;;;;;;;18.33;99.79;100337.47;5006906;28;20311;-80
2022/08/27 07:05:10;;;;;;;6.97;5.17;;;;;;;18.35;99.91;100332.13;5005144;28;20246;-80
2022/08/27 07:07:37;;;;;;;9.27;5.90;;;;;;;18.26;100.00;100344.03;5006840;28;20222;-80
2022/08/27 07:10:11;;;;;;;5.43;4.93;;;;;;;18.16;99.97;100346.31;5007706;28;20737;-81
2022/08/27 07:12:37;;;;;;;6.33;5.07;;;;;;;18.17;99.86;100336.56;5007716;28;20209;-82
2022/08/27 07:15:04;;;;;;;10.30;5.77;;;;;;;18.16;100.00;100343.66;4996929;28;20740;-80
2022/08/27 07:17:31;;;;;;;12.60;5.27;;;;;;;18.19;100.00;100338.19;4997919;28;20666;-80
2022/08/27 07:19:57;;;;;;;6.83;5.03;;;;;;;18.33;100.00;100334.81;4997158;28;20234;-82
2022/08/27 07:22:23;;;;;;;7.40;4.90;;;;;;;18.24;99.59;100337.97;4997022;28;20211;-82
2022/08/27 07:24:52;;;;;;;7.43;4.03;;;;;;;18.20;98.90;100360.22;5009563;28;20214;-81
2022/08/27 07:27:20;;;;;;;6.53;3.87;;;;;;;18.03;99.23;100353.16;5028333;28;20229;-82
2022/08/27 07:29:47;;;;;;;12.93;4.43;;;;;;;18.06;100.00;100339.78;5036473;28;20229;-80
2022/08/27 07:32:19;;;;;;;4.57;4.17;;;;;;;18.19;99.59;100348.75;5019854;28;20211;-81
2022/08/27 07:34:47;;;;;;;6.53;3.97;;;;;;;18.24;99.12;100357.31;5004617;28;20258;-80
2022/08/27 07:37:13;;;;;;;6.50;4.40;;;;;;;18.26;98.83;100368.66;5004707;28;20214;-80
2022/08/27 07:39:40;;;;;;;4.60;3.20;;;;;;;18.43;97.31;100393.34;5006922;28;20222;-79
2022/08/27 07:45:07;;;;;;;6.43;3.90;;;;;;;18.16;97.88;100379.81;4964397;28;20209;-82
2022/08/27 07:47:35;;;;;;;9.83;3.80;;;;;;;18.32;97.00;100393.06;4965560;28;20605;-80
2022/08/27 07:50:01;;;;;;;4.83;3.50;;;;;;;18.34;96.90;100402.63;4981544;28;20455;-81
2022/08/27 07:52:27;;;;;;;6.20;3.73;;;;;;;18.09;97.65;100389.81;5006667;28;20195;-79
2022/08/27 07:54:55;;;;;;;6.10;3.53;;;;;;;18.17;98.08;100377.06;5009120;28;20254;-80
2022/08/27 07:57:21;;;;;;;8.90;4.10;;;;;;;18.08;98.23;100377.53;5008766;28;20249;-81
2022/08/27 07:59:48;;;;;;;4.10;3.67;;;;;;;18.19;98.09;100369.06;5004948;28;20297;-81
2022/08/27 08:02:18;;;;;;;5.50;4.20;;;;;;;18.25;97.76;100382.81;5005618;28;20205;-81
2022/08/27 08:04:44;;;;;;;8.03;3.47;;;;;;;18.25;97.27;100385.47;5005599;28;20264;-82
2022/08/27 08:07:11;;;;;;;5.83;3.73;;;;;;;18.33;97.50;100392.97;5004713;28;20228;-81
2022/08/27 08:09:38;;;;;;;5.60;4.00;;;;;;;18.45;97.23;100394.13;5007502;28;20744;-81
2022/08/27 08:12:04;;;;;;;10.40;4.13;;;;;;;18.50;96.83;100397.38;5004076;28;20554;-81
2022/08/27 08:14:31;;;;;;;5.70;4.27;;;;;;;18.45;96.16;100429.34;5003961;28;20555;-82
2022/08/27 08:17:00;;;;;;;7.47;4.23;;;;;;;18.35;96.79;100422.81;5005696;28;20199;-81
2022/08/27 08:19:28;;;;;;;4.90;4.30;;;;;;;18.54;96.46;100419.22;5005261;28;20223;-82
2022/08/27 08:21:56;;;;;;;7.47;4.27;;;;;;;18.70;96.17;100433.34;5004236;28;20203;-81
2022/08/27 08:24:22;;;;;;;5.03;3.60;;;;;;;18.72;95.55;100441.19;5006281;28;20326;-81
2022/08/27 08:26:49;;;;;;;9.20;4.17;;;;;;;18.85;94.76;100466.09;5013223;28;20248;-80
2022/08/27 08:29:15;;;;;;;5.30;3.50;;;;;;;18.68;94.40;100484.63;5004192;28;20223;-81
2022/08/27 08:31:46;;;;;;;7.67;4.60;;;;;;;18.76;94.70;100466.56;5005414;28;20740;-81
2022/08/27 08:34:13;;;;;;;5.30;3.23;;;;;;;18.76;94.77;100466.56;5006679;28;20696;-81
2022/08/27 08:36:41;;;;;;;4.77;3.50;;;;;;;18.62;94.87;100477.84;5004967;28;20202;-82
2022/08/27 08:39:07;;;;;;;6.43;3.87;;;;;;;18.61;94.76;100479.66;5005916;28;20265;-80
2022/08/27 08:41:40;;;;;;;6.03;3.90;;;;;;;18.54;94.88;100475.59;5006931;28;20202;-81
2022/08/27 08:44:14;;;;;;;10.10;4.50;;;;;;;18.53;95.06;100473.91;5006379;28;20206;-82
2022/08/27 08:46:48;;;;;;;6.63;4.03;;;;;;;18.66;95.26;100456.44;5004719;28;20206;-80
2022/08/27 08:49:23;;;;;;;5.80;3.90;;;;;;;18.56;94.78;100472.88;5004076;28;20480;-80
2022/08/27 08:51:55;;;;;;;6.53;3.90;;;;;;;18.60;95.21;100467.34;5004399;28;20206;-81
2022/08/27 08:54:29;;;;;;;9.70;3.67;;;;;;;18.75;94.57;100472.75;5006240;28;20198;-80
2022/08/27 08:57:01;;;;;;;6.90;4.60;;;;;;;18.78;94.11;100476.09;5010812;28;20223;-81
2022/08/27 08:59:31;;;;;;;5.73;4.17;;;;;;;18.77;94.63;100477.06;5005150;28;20246;-80
2022/08/27 09:01:58;;;;;;;8.43;4.20;;;;;;;18.75;93.36;100496.56;5003935;28;20204;-81
2022/08/27 09:04:26;;;;;;;6.10;4.23;;;;;;;18.50;94.93;100489.06;5004247;28;20668;-80
2022/08/27 09:06:58;;;;;;;6.17;4.77;;;;;;;18.57;94.54;100470.16;5005732;28;20205;-81
2022/08/27 09:09:37;;;;;;;6.40;3.67;;;;;;;18.64;94.29;100484.75;5007462;28;20218;-80
2022/08/27 09:12:13;;;;;;;7.23;4.17;;;;;;;18.62;94.72;100476.03;5006585;28;20239;-82
2022/08/27 09:14:46;;;;;;;8.93;4.50;;;;;;;18.63;94.28;100484.81;5000423;28;20674;-79
2022/08/27 09:17:13;;;;;;;7.27;4.43;;;;;;;18.58;93.71;100493.00;5000308;28;20203;-79
2022/08/27 09:19:44;;;;;;;6.37;4.03;;;;;;;18.67;93.01;100512.81;5008127;28;20233;-83
2022/08/27 09:22:32;;;;;;;5.20;3.50;;;;;;;18.77;93.28;100519.38;5010195;28;20257;-83
2022/08/27 09:25:08;;;;;;;4.43;4.03;;;;;;;18.71;93.50;100506.47;5011609;28;20207;-84
2022/08/27 09:27:38;;;;;;;9.97;4.67;;;;;;;18.83;92.47;100520.88;5008972;28;20247;-82
2022/08/27 09:30:08;;;;;;;4.57;3.70;;;;;;;18.87;92.58;100527.72;5007371;28;20838;-79
2022/08/27 09:32:35;;;;;;;5.83;4.40;;;;;;;18.89;91.81;100541.72;5008075;28;20266;-80
2022/08/27 09:35:07;;;;;;;5.33;4.10;;;;;;;18.73;92.12;100543.38;4999780;28;20207;-81
2022/08/27 09:37:41;;;;;;;7.87;4.00;;;;;;;18.69;92.64;100532.13;4999997;28;20208;-80
2022/08/27 09:40:15;;;;;;;4.73;3.70;;;;;;;18.63;93.12;100509.50;5000249;28;20263;-79
2022/08/27 09:42:45;;;;;;;7.13;4.30;;;;;;;18.56;92.92;100516.03;5000263;28;20280;-80
2022/08/27 09:45:15;;;;;;;5.73;4.47;;;;;;;18.61;93.09;100499.91;5000255;28;20204;-80
2022/08/27 09:47:43;;;;;;;6.87;4.33;;;;;;;18.67;92.43;100512.81;5000401;28;20227;-81
2022/08/27 09:50:14;;;;;;;7.03;4.20;;;;;;;18.73;91.40;100535.44;5002822;28;22008;-82
2022/08/27 09:52:52;;;;;;;5.83;4.33;;;;;;;18.71;92.31;100524.97;5018675;28;20273;-80
2022/08/27 09:55:27;;;;;;;6.03;4.33;;;;;;;18.85;92.83;100514.56;5026875;28;20232;-80
2022/08/27 09:57:54;;;;;;;12.70;5.73;;;;;;;18.95;91.45;100538.75;5024038;28;20201;-80
2022/08/27 10:00:36;;;;;;;6.80;4.07;;;;;;;18.99;90.77;100542.94;5038721;28;20239;-82
2022/08/27 10:03:05;;;;;;;6.33;4.00;;;;;;;19.05;90.49;100560.28;5039070;28;20750;-81
2022/08/27 10:05:36;;;;;;;6.70;4.60;;;;;;;19.05;91.19;100552.34;4333535;28;10000959;-81
2022/08/27 10:08:12;;;;;;;8.07;4.83;;;;;;;19.08;90.17;100565.41;5029998;28;20233;-82
2022/08/27 10:10:46;;;;;;;9.07;4.83;;;;;;;19.27;89.86;100578.53;5037395;28;20208;-82
2022/08/27 10:13:17;;;;;;;4.43;3.70;;;;;;;19.48;88.55;100592.41;5037132;28;20222;-81
2022/08/27 10:15:55;;;;;;;5.13;4.50;;;;;;;19.60;88.80;100602.34;5036943;28;20747;-81
2022/08/27 10:18:33;;;;;;;5.90;4.20;;;;;;;19.65;87.90;100615.34;5036280;28;20675;-81
2022/08/27 10:21:07;;;;;;;7.03;3.83;;;;;;;19.64;87.43;100626.84;5035523;28;20272;-80
2022/08/27 10:23:42;;;;;;;7.10;4.13;;;;;;;19.76;87.51;100626.25;5035865;28;20221;-81
2022/08/27 10:26:14;;;;;;;5.07;3.93;;;;;;;19.75;85.97;100656.31;5018625;28;20201;-81
2022/08/27 10:28:59;;;;;;;6.93;4.60;;;;;;;19.81;85.88;100671.88;5034632;28;20615;-82
2022/08/27 10:31:32;;;;;;;7.27;4.57;;;;;;;19.71;86.64;100648.59;5034927;28;20209;-81
2022/08/27 10:34:16;;;;;;;12.03;4.77;;;;;;;19.81;86.49;100649.81;5035978;28;20210;-81
2022/08/27 10:36:52;;;;;;;7.37;4.47;;;;;;;19.97;85.72;100655.16;5035183;28;20292;-81
2022/08/27 10:39:36;;;;;;;5.67;3.77;;;;;;;20.01;84.92;100664.63;5035824;28;20276;-81
2022/08/27 10:42:13;;;;;;;6.40;4.27;;;;;;;20.00;84.30;100682.34;5034949;28;20279;-81
2022/08/27 10:44:50;;;;;;;7.63;4.60;;;;;;;20.13;84.45;100681.66;5035853;28;20205;-80
2022/08/27 10:47:28;;;;;;;6.63;4.50;;;;;;;20.19;84.58;100670.72;5035273;28;20209;-82
2022/08/27 10:50:03;;;;;;;8.40;4.30;;;;;;;20.04;83.83;100690.97;5036180;28;20225;-81
2022/08/27 10:52:37;;;;;;;5.80;4.33;;;;;;;20.16;84.94;100676.22;5035712;28;20219;-80
2022/08/27 10:55:12;;;;;;;6.13;3.93;;;;;;;20.15;84.09;100664.72;5033385;28;20746;-82
2022/08/27 10:58:01;;;;;;;6.80;4.27;;;;;;;19.96;84.06;100683.44;5027015;28;20271;-80
2022/08/27 11:00:34;;;;;;;8.13;5.40;;;;;;;20.00;84.13;100682.34;5035221;28;20206;-81
2022/08/27 11:03:06;;;;;;;6.17;4.43;;;;;;;20.10;83.75;100676.50;5035780;28;20198;-82
2022/08/27 11:05:39;;;;;;;8.23;5.07;;;;;;;20.09;83.96;100675.66;5021610;28;20256;-82
2022/08/27 11:08:10;;;;;;;7.47;5.30;;;;;;;20.16;84.44;100657.66;5015032;28;20300;-81
2022/08/27 11:10:41;;;;;;;9.77;4.43;;;;;;;20.13;84.06;100657.81;5015776;28;20207;-82
2022/08/27 11:13:16;;;;;;;9.47;4.47;;;;;;;20.14;83.47;100676.28;5015421;28;20264;-80
2022/08/27 11:15:46;;;;;;;11.87;4.73;;;;;;;20.17;83.51;100675.25;5014818;28;20223;-81
2022/08/27 11:18:18;;;;;;;6.87;5.47;;;;;;;20.21;82.89;100705.94;5015218;28;20261;-81
2022/08/27 11:20:52;;;;;;;6.37;4.63;;;;;;;20.11;82.92;100705.59;5015069;28;20276;-80
2022/08/27 11:23:23;;;;;;;9.03;4.33;;;;;;;20.03;82.87;100689.25;5015232;28;20274;-80
2022/08/27 11:25:55;;;;;;;6.53;4.10;;;;;;;20.07;83.72;100674.91;5022902;28;20256;-80
2022/08/27 11:28:30;;;;;;;4.43;3.80;;;;;;;20.09;82.49;100711.94;5031445;28;20717;-80
2022/08/27 11:31:03;;;;;;;5.43;3.30;;;;;;;20.19;81.80;100731.69;5035594;28;20300;-80